Time;durP1;ratioP1;P1;durP2;ratioP2;P2;SDS_P1;SDS_P2;PMS_P1;PMS_P2;Temp;Humidity;BMP_temperature;BMP_pressure;BME280_temperature;BME280_humidity;BME280_pressure;Samples;Min_cycle;Max_cycle;Signal;HPM_P1;HPM_P2
2022/10/19 00:01:47;;;;;;;;;;;9.80;85.90;;;;;;5033013;28;19920;-79
2022/10/19 00:04:12;;;;;;;;;;;9.80;85.50;;;;;;5030974;28;19913;-78
2022/10/19 00:06:38;;;;;;;;;;;9.70;85.40;;;;;;5033289;28;19920;-79
2022/10/19 00:09:05;;;;;;;;;;;9.80;85.10;;;;;;5034389;28;19913;-79
2022/10/19 00:11:31;;;;;;;;;;;9.80;85.30;;;;;;5035097;28;20381;-79
2022/10/19 00:13:57;;;;;;;;;;;9.70;85.10;;;;;;5032495;28;19986;-79
2022/10/19 00:16:23;;;;;;;;;;;9.70;84.90;;;;;;5036863;28;20384;-79
2022/10/19 00:18:48;;;;;;;;;;;9.60;85.40;;;;;;5033353;28;19925;-79
2022/10/19 00:21:14;;;;;;;;;;;9.50;85.40;;;;;;5036772;28;19967;-78
2022/10/19 00:23:40;;;;;;;;;;;9.50;85.80;;;;;;5016671;28;20297;-80
2022/10/19 00:26:05;;;;;;;;;;;9.50;85.30;;;;;;5033662;28;19919;-79
2022/10/19 00:28:31;;;;;;;;;;;9.30;85.30;;;;;;5041876;28;19957;-78
2022/10/19 00:31:00;;;;;;;;;;;9.30;85.50;;;;;;5032521;28;19924;-79
2022/10/19 00:33:26;;;;;;;;;;;9.30;85.10;;;;;;5034016;28;19913;-79
2022/10/19 00:35:52;;;;;;;;;;;9.40;84.80;;;;;;5034973;28;19944;-78
2022/10/19 00:38:18;;;;;;;;;;;9.30;84.70;;;;;;5032605;28;19921;-78
2022/10/19 00:40:44;;;;;;;;;;;9.20;84.90;;;;;;5035739;28;19913;-78
2022/10/19 00:43:42;;;;;;;;;;;9.30;85.20;;;;;;5040307;22;19929;-83
2022/10/19 00:46:14;;;;;;;;;;;9.30;85.40;;;;;;5022279;28;20392;-84
2022/10/19 00:48:42;;;;;;;;;;;9.30;85.30;;;;;;5029138;28;20549;-84
2022/10/19 00:51:36;;;;;;;;;;;9.10;85.30;;;;;;5035926;28;20297;-84
2022/10/19 00:57:13;;;;;;;;;;;9.10;84.50;;;;;;5020195;28;19917;-83
2022/10/19 01:00:36;;;;;;;;;;;;;;;;;;;;;
2022/10/19 01:03:13;;;;;;;;;;;8.90;85.00;;;;;;5017596;28;20177;-83
2022/10/19 01:06:16;;;;;;;;;;;8.90;84.80;;;;;;5035108;28;20322;-83
2022/10/19 01:09:04;;;;;;;;;;;9.10;84.80;;;;;;5023855;28;19920;-85
2022/10/19 01:17:52;;;;;;;;;;;8.90;85.10;;;;;;5034246;23;19932;-86
2022/10/19 01:20:32;;;;;;;;;;;9.20;84.30;;;;;;5028363;28;19921;-86
2022/10/19 01:22:57;;;;;;;;;;;9.10;84.20;;;;;;5029970;28;19920;-87
2022/10/19 01:25:27;;;;;;;;;;;9.00;84.80;;;;;;5029485;28;19913;-87
2022/10/19 01:28:02;;;;;;;;;;;8.90;85.30;;;;;;5031802;28;19913;-87
2022/10/19 01:30:34;;;;;;;;;;;9.00;85.20;;;;;;5029004;28;20054;-87
2022/10/19 01:33:03;;;;;;;;;;;8.90;85.20;;;;;;5030337;28;19909;-87
2022/10/19 01:35:43;;;;;;;;;;;8.80;85.00;;;;;;5026364;28;19965;-87
2022/10/19 01:38:28;;;;;;;;;;;8.80;84.90;;;;;;5027459;28;20345;-87
2022/10/19 01:41:02;;;;;;;;;;;8.60;84.60;;;;;;5029948;28;20650;-87
2022/10/19 01:43:41;;;;;;;;;;;8.60;84.50;;;;;;5029196;28;20426;-87
2022/10/19 01:46:12;;;;;;;;;;;8.50;84.50;;;;;;5029062;28;19913;-87
2022/10/19 01:48:39;;;;;;;;;;;8.40;84.70;;;;;;5048295;28;19963;-87
2022/10/19 01:51:06;;;;;;;;;;;8.40;85.00;;;;;;5031883;28;19997;-87
2022/10/19 01:53:34;;;;;;;;;;;8.40;85.20;;;;;;5026789;28;19913;-87
2022/10/19 01:56:01;;;;;;;;;;;8.40;85.00;;;;;;5042434;28;19913;-88
2022/10/19 01:58:29;;;;;;;;;;;8.40;85.00;;;;;;5022788;28;19917;-87
2022/10/19 02:00:55;;;;;;;;;;;8.50;85.00;;;;;;5026573;28;20459;-86
2022/10/19 02:03:22;;;;;;;;;;;8.50;84.40;;;;;;5026332;28;19924;-87
2022/10/19 02:05:48;;;;;;;;;;;8.30;84.10;;;;;;5028873;28;20383;-87
2022/10/19 02:08:16;;;;;;;;;;;8.20;84.10;;;;;;5027931;28;19920;-86
2022/10/19 02:10:42;;;;;;;;;;;8.20;84.60;;;;;;5021739;28;20067;-87
2022/10/19 02:13:08;;;;;;;;;;;8.20;84.70;;;;;;5027988;28;20326;-87
2022/10/19 02:15:36;;;;;;;;;;;8.30;84.60;;;;;;5029240;28;19925;-87
2022/10/19 02:18:02;;;;;;;;;;;8.10;84.60;;;;;;5029229;28;20035;-87
2022/10/19 02:20:28;;;;;;;;;;;8.20;84.80;;;;;;5028832;28;19917;-87
2022/10/19 02:22:53;;;;;;;;;;;8.30;84.40;;;;;;5042037;28;19931;-86
2022/10/19 02:25:19;;;;;;;;;;;8.20;84.40;;;;;;5043334;28;20027;-87
2022/10/19 02:27:44;;;;;;;;;;;8.20;84.80;;;;;;5032096;28;19917;-87
2022/10/19 02:30:11;;;;;;;;;;;8.20;85.80;;;;;;5032141;28;19967;-87
2022/10/19 02:32:37;;;;;;;;;;;8.30;85.80;;;;;;5028189;28;20000;-87
2022/10/19 02:35:02;;;;;;;;;;;8.20;85.50;;;;;;5034537;28;19952;-87
2022/10/19 02:37:28;;;;;;;;;;;8.20;85.20;;;;;;5028486;28;19967;-88
2022/10/19 02:39:53;;;;;;;;;;;8.30;85.30;;;;;;5029007;28;19925;-88
2022/10/19 02:42:23;;;;;;;;;;;8.30;85.00;;;;;;5028595;28;19915;-87
2022/10/19 02:44:50;;;;;;;;;;;8.30;85.20;;;;;;5030016;28;19917;-87
2022/10/19 02:47:15;;;;;;;;;;;8.30;85.20;;;;;;5031657;28;19920;-86
2022/10/19 02:49:42;;;;;;;;;;;8.30;84.90;;;;;;5018403;28;20298;-87
2022/10/19 02:52:09;;;;;;;;;;;8.20;84.60;;;;;;5027473;28;19918;-87
2022/10/19 02:54:34;;;;;;;;;;;8.30;84.80;;;;;;5032886;28;19920;-86
2022/10/19 02:57:00;;;;;;;;;;;8.10;84.40;;;;;;5026160;28;19921;-87
2022/10/19 02:59:25;;;;;;;;;;;8.10;84.30;;;;;;5029016;28;20394;-87
2022/10/19 03:01:51;;;;;;;;;;;7.90;84.50;;;;;;5024715;28;19949;-87
2022/10/19 03:04:17;;;;;;;;;;;7.80;85.40;;;;;;5022652;28;19920;-87
2022/10/19 03:06:42;;;;;;;;;;;7.80;85.60;;;;;;5024664;28;19956;-87
2022/10/19 03:09:08;;;;;;;;;;;7.80;85.50;;;;;;5029207;28;19913;-87
2022/10/19 03:11:33;;;;;;;;;;;7.80;85.40;;;;;;5029048;28;19913;-86
2022/10/19 03:13:59;;;;;;;;;;;7.70;85.80;;;;;;5026795;28;20331;-86
2022/10/19 03:16:24;;;;;;;;;;;7.70;86.00;;;;;;5029133;28;19913;-87
2022/10/19 03:18:50;;;;;;;;;;;7.70;85.80;;;;;;5027305;28;19949;-86
2022/10/19 03:21:15;;;;;;;;;;;7.80;85.60;;;;;;5027783;28;19913;-86
2022/10/19 03:23:41;;;;;;;;;;;7.90;85.50;;;;;;5025297;28;19917;-86
2022/10/19 03:26:07;;;;;;;;;;;7.80;85.40;;;;;;5027073;28;20417;-86
2022/10/19 03:28:33;;;;;;;;;;;7.80;85.50;;;;;;5025036;28;19913;-86
2022/10/19 03:30:58;;;;;;;;;;;7.80;85.30;;;;;;5025282;28;19970;-86
2022/10/19 03:33:24;;;;;;;;;;;8.00;85.00;;;;;;5029137;28;19921;-87
2022/10/19 03:35:49;;;;;;;;;;;7.90;85.10;;;;;;5022646;28;19926;-87
2022/10/19 03:38:15;;;;;;;;;;;7.90;85.50;;;;;;5027308;28;19924;-86
2022/10/19 03:40:41;;;;;;;;;;;7.90;85.50;;;;;;5028175;28;19940;-87
2022/10/19 03:43:06;;;;;;;;;;;7.80;85.20;;;;;;5020850;28;19920;-86
2022/10/19 03:45:32;;;;;;;;;;;7.80;85.50;;;;;;5025932;28;20039;-87
2022/10/19 03:47:57;;;;;;;;;;;7.80;85.50;;;;;;5027756;28;19917;-86
2022/10/19 03:50:22;;;;;;;;;;;7.90;85.50;;;;;;5027807;28;20366;-86
2022/10/19 03:52:48;;;;;;;;;;;7.90;85.70;;;;;;5023430;28;19917;-86
2022/10/19 03:55:14;;;;;;;;;;;7.90;85.70;;;;;;5020361;28;20299;-86
2022/10/19 03:57:40;;;;;;;;;;;7.90;85.50;;;;;;5025629;28;19917;-87
2022/10/19 04:00:06;;;;;;;;;;;7.90;86.10;;;;;;5029791;28;19980;-86
2022/10/19 04:02:31;;;;;;;;;;;7.90;86.30;;;;;;5033412;28;19921;-86
2022/10/19 04:04:56;;;;;;;;;;;7.90;86.60;;;;;;5025429;28;19956;-85
2022/10/19 04:07:22;;;;;;;;;;;7.90;86.50;;;;;;5027093;28;20422;-85
2022/10/19 04:09:47;;;;;;;;;;;7.90;86.40;;;;;;5029192;28;20502;-86
2022/10/19 04:12:13;;;;;;;;;;;7.90;86.20;;;;;;5029258;28;20291;-86
2022/10/19 04:14:38;;;;;;;;;;;7.90;86.40;;;;;;5030489;28;20323;-86
2022/10/19 04:17:04;;;;;;;;;;;8.00;86.30;;;;;;5028486;28;20347;-85
2022/10/19 04:19:30;;;;;;;;;;;8.00;86.10;;;;;;5028923;28;20287;-86
2022/10/19 04:21:55;;;;;;;;;;;8.00;86.40;;;;;;5023570;28;20395;-85
2022/10/19 04:24:21;;;;;;;;;;;8.00;86.40;;;;;;5030384;28;19917;-86
2022/10/19 04:26:48;;;;;;;;;;;8.00;87.00;;;;;;5035676;28;19908;-86
2022/10/19 04:29:14;;;;;;;;;;;8.00;86.90;;;;;;5027195;28;19917;-84
2022/10/19 04:31:40;;;;;;;;;;;8.10;86.60;;;;;;5029711;28;19956;-86
2022/10/19 04:34:06;;;;;;;;;;;8.00;86.70;;;;;;5041259;28;19931;-87
2022/10/19 04:36:31;;;;;;;;;;;8.00;86.80;;;;;;5024164;28;20156;-84
2022/10/19 04:38:57;;;;;;;;;;;8.10;86.60;;;;;;5026815;28;19931;-88
2022/10/19 04:41:22;;;;;;;;;;;8.10;86.30;;;;;;5027339;28;19924;-85
2022/10/19 04:43:48;;;;;;;;;;;8.10;86.60;;;;;;5029768;28;19920;-86
2022/10/19 04:46:15;;;;;;;;;;;8.00;86.50;;;;;;5022596;28;19919;-86
2022/10/19 04:48:40;;;;;;;;;;;8.00;86.70;;;;;;5028759;28;21281;-84
2022/10/19 04:51:06;;;;;;;;;;;7.90;86.70;;;;;;5029651;28;19928;-85
2022/10/19 04:53:32;;;;;;;;;;;7.90;86.70;;;;;;5031614;28;19924;-85
2022/10/19 04:55:58;;;;;;;;;;;8.00;87.50;;;;;;5028029;28;20275;-83
2022/10/19 04:58:23;;;;;;;;;;;7.90;87.00;;;;;;5028682;28;19917;-83
2022/10/19 05:00:49;;;;;;;;;;;7.90;87.20;;;;;;5033897;28;20394;-83
2022/10/19 05:03:15;;;;;;;;;;;7.90;86.80;;;;;;5028828;28;19975;-84
2022/10/19 05:05:40;;;;;;;;;;;7.80;86.80;;;;;;5032314;28;19948;-84
2022/10/19 05:08:06;;;;;;;;;;;7.70;86.60;;;;;;5039549;28;19956;-83
2022/10/19 05:10:32;;;;;;;;;;;7.50;86.30;;;;;;5034711;28;19917;-82
2022/10/19 05:12:58;;;;;;;;;;;7.50;86.20;;;;;;5035334;28;19948;-85
2022/10/19 05:15:24;;;;;;;;;;;7.50;86.20;;;;;;5034401;28;20047;-84
2022/10/19 05:17:49;;;;;;;;;;;7.50;85.80;;;;;;5037664;28;19940;-84
2022/10/19 05:20:15;;;;;;;;;;;7.50;86.20;;;;;;5030049;28;19924;-84
2022/10/19 05:22:40;;;;;;;;;;;7.50;86.10;;;;;;5035154;28;19919;-83
2022/10/19 05:25:06;;;;;;;;;;;7.70;86.20;;;;;;5033239;28;19913;-83
2022/10/19 05:27:34;;;;;;;;;;;7.70;86.00;;;;;;5035946;28;19971;-82
2022/10/19 05:30:00;;;;;;;;;;;7.70;86.10;;;;;;5041172;28;19967;-83
2022/10/19 05:32:26;;;;;;;;;;;7.70;86.00;;;;;;5036910;28;20378;-84
2022/10/19 05:34:51;;;;;;;;;;;7.70;86.40;;;;;;5033502;28;19917;-84
2022/10/19 05:37:16;;;;;;;;;;;7.70;86.60;;;;;;5036216;28;19999;-84
2022/10/19 05:39:42;;;;;;;;;;;7.80;85.60;;;;;;5035592;28;19920;-84
2022/10/19 05:42:08;;;;;;;;;;;7.80;85.40;;;;;;5035679;28;19909;-84
2022/10/19 05:44:33;;;;;;;;;;;7.70;85.40;;;;;;5035415;28;19913;-83
2022/10/19 05:46:59;;;;;;;;;;;7.70;85.40;;;;;;5035033;28;19916;-84
2022/10/19 05:49:24;;;;;;;;;;;7.80;85.90;;;;;;5034426;28;20337;-84
2022/10/19 05:51:50;;;;;;;;;;;7.80;86.80;;;;;;5034185;28;20298;-84
2022/10/19 05:54:15;;;;;;;;;;;7.80;86.60;;;;;;5031997;28;20019;-88
2022/10/19 05:56:41;;;;;;;;;;;7.80;86.80;;;;;;5033834;28;19917;-88
2022/10/19 05:59:09;;;;;;;;;;;7.80;86.70;;;;;;5023471;28;19917;-87
2022/10/19 06:01:35;;;;;;;;;;;7.80;86.40;;;;;;5028456;28;19978;-86
2022/10/19 06:04:01;;;;;;;;;;;7.90;86.50;;;;;;5030811;28;19913;-86
2022/10/19 06:06:27;;;;;;;;;;;7.90;86.00;;;;;;5027683;28;20395;-87
2022/10/19 06:08:53;;;;;;;;;;;7.80;85.90;;;;;;5030062;28;19940;-87
2022/10/19 06:11:25;;;;;;;;;;;7.70;86.10;;;;;;5036517;28;19897;-89
2022/10/19 06:13:52;;;;;;;;;;;7.70;86.50;;;;;;5045596;28;19925;-86
2022/10/19 06:16:18;;;;;;;;;;;7.70;86.50;;;;;;5031529;28;19919;-85
2022/10/19 06:18:44;;;;;;;;;;;7.60;86.70;;;;;;5027165;28;20276;-85
2022/10/19 06:21:14;;;;;;;;;;;7.60;87.30;;;;;;5022096;28;19924;-86
2022/10/19 06:23:41;;;;;;;;;;;7.60;87.00;;;;;;5024219;28;19917;-85
2022/10/19 06:26:08;;;;;;;;;;;7.70;87.10;;;;;;5024476;28;20304;-85
2022/10/19 06:28:34;;;;;;;;;;;7.70;87.10;;;;;;5030393;28;19951;-86
2022/10/19 06:30:59;;;;;;;;;;;7.80;86.90;;;;;;5030077;28;19921;-85
2022/10/19 06:33:25;;;;;;;;;;;7.90;86.60;;;;;;5033172;28;19914;-83
2022/10/19 06:35:51;;;;;;;;;;;7.90;86.80;;;;;;5031523;28;20004;-82
2022/10/19 06:38:16;;;;;;;;;;;7.90;86.80;;;;;;5030955;28;19956;-83
2022/10/19 06:40:42;;;;;;;;;;;7.90;87.00;;;;;;5030909;28;19926;-82
2022/10/19 06:43:07;;;;;;;;;;;7.90;87.00;;;;;;5043183;22;19977;-78
2022/10/19 06:45:33;;;;;;;;;;;7.90;86.90;;;;;;5008650;28;19976;-78
2022/10/19 06:47:59;;;;;;;;;;;7.90;87.10;;;;;;5011146;28;20374;-78
2022/10/19 06:50:24;;;;;;;;;;;7.80;87.60;;;;;;5012352;28;19918;-78
2022/10/19 06:52:50;;;;;;;;;;;7.90;87.80;;;;;;5009236;28;19921;-78
2022/10/19 06:55:16;;;;;;;;;;;7.90;87.60;;;;;;5026355;28;19914;-78
2022/10/19 06:57:42;;;;;;;;;;;7.90;87.70;;;;;;5012513;28;19952;-78
2022/10/19 07:00:08;;;;;;;;;;;8.00;88.30;;;;;;5012440;28;19918;-78
2022/10/19 07:02:33;;;;;;;;;;;7.90;87.60;;;;;;5007232;28;19921;-79
2022/10/19 07:04:59;;;;;;;;;;;7.90;87.80;;;;;;5013824;28;19914;-78
2022/10/19 07:07:24;;;;;;;;;;;7.90;87.80;;;;;;5011327;28;19914;-79
2022/10/19 07:09:50;;;;;;;;;;;7.90;87.80;;;;;;5015192;28;20294;-78
2022/10/19 07:12:16;;;;;;;;;;;8.00;87.80;;;;;;5016239;28;19914;-79
2022/10/19 07:14:41;;;;;;;;;;;8.00;87.60;;;;;;5014621;28;19939;-79
2022/10/19 07:17:08;;;;;;;;;;;7.80;87.80;;;;;;5012977;28;20382;-79
2022/10/19 07:19:34;;;;;;;;;;;7.80;88.10;;;;;;5013539;28;19928;-78
2022/10/19 07:22:00;;;;;;;;;;;7.80;88.60;;;;;;5014369;28;19914;-79
2022/10/19 07:24:25;;;;;;;;;;;7.90;89.00;;;;;;5013251;28;21049;-79
2022/10/19 07:26:50;;;;;;;;;;;7.90;89.00;;;;;;5015008;28;19964;-80
2022/10/19 07:29:16;;;;;;;;;;;7.80;89.20;;;;;;5028386;28;20411;-79
2022/10/19 07:31:42;;;;;;;;;;;7.80;89.30;;;;;;5015792;28;20436;-79
2022/10/19 07:34:10;;;;;;;;;;;7.80;89.80;;;;;;5013990;28;20012;-78
2022/10/19 07:36:35;;;;;;;;;;;7.80;90.00;;;;;;5014978;28;20005;-79
2022/10/19 07:39:01;;;;;;;;;;;7.80;90.30;;;;;;5014481;28;19968;-79
2022/10/19 07:41:27;;;;;;;;;;;7.80;90.30;;;;;;5011144;28;19967;-79
2022/10/19 07:43:53;;;;;;;;;;;7.80;90.30;;;;;;5026575;28;19924;-79
2022/10/19 07:46:20;;;;;;;;;;;7.90;90.60;;;;;;5009016;28;19913;-79
2022/10/19 07:48:45;;;;;;;;;;;8.00;90.60;;;;;;5010373;28;19928;-80
2022/10/19 07:51:12;;;;;;;;;;;8.10;90.50;;;;;;5012323;28;19914;-80
2022/10/19 07:53:38;;;;;;;;;;;8.10;90.40;;;;;;5015156;28;19925;-81
2022/10/19 07:56:07;;;;;;;;;;;8.10;90.60;;;;;;5013954;28;20317;-80
2022/10/19 07:58:33;;;;;;;;;;;8.30;90.70;;;;;;5015218;28;19918;-81
2022/10/19 08:01:09;;;;;;;;;;;8.30;90.90;;;;;;5019355;28;20504;-81
2022/10/19 08:03:35;;;;;;;;;;;8.50;90.60;;;;;;5032567;28;19919;-81
2022/10/19 08:06:03;;;;;;;;;;;8.50;90.70;;;;;;5034538;28;20001;-82
2022/10/19 08:08:28;;;;;;;;;;;8.60;90.70;;;;;;5035138;28;19918;-81
2022/10/19 08:10:54;;;;;;;;;;;8.60;90.50;;;;;;5043297;28;19914;-82
2022/10/19 08:13:19;;;;;;;;;;;8.70;90.70;;;;;;5023811;28;19921;-80
2022/10/19 08:15:45;;;;;;;;;;;8.80;90.70;;;;;;5026682;28;19914;-80
2022/10/19 08:18:10;;;;;;;;;;;8.90;90.60;;;;;;5026142;28;20476;-80
2022/10/19 08:20:36;;;;;;;;;;;9.00;90.60;;;;;;5025267;28;19921;-78
2022/10/19 08:23:01;;;;;;;;;;;9.00;90.40;;;;;;5027633;28;19920;-80
2022/10/19 08:25:27;;;;;;;;;;;9.10;90.30;;;;;;5043279;28;19913;-80
2022/10/19 08:27:52;;;;;;;;;;;9.20;90.30;;;;;;5042341;28;19914;-81
2022/10/19 08:30:18;;;;;;;;;;;9.30;89.80;;;;;;5012777;28;19917;-81
2022/10/19 08:32:43;;;;;;;;;;;9.40;90.00;;;;;;5033016;28;19960;-81
2022/10/19 08:35:08;;;;;;;;;;;9.50;89.90;;;;;;5018884;28;19921;-81
2022/10/19 08:37:34;;;;;;;;;;;9.60;89.90;;;;;;5019094;28;19984;-81
2022/10/19 08:39:59;;;;;;;;;;;9.60;89.90;;;;;;5018644;28;19921;-80
2022/10/19 08:42:47;;;;;;;;;;;9.70;89.70;;;;;;5031068;28;19914;-81
2022/10/19 08:45:15;;;;;;;;;;;9.80;88.90;;;;;;5012271;28;19921;-81
2022/10/19 08:47:44;;;;;;;;;;;9.80;88.70;;;;;;5015056;28;19913;-80
2022/10/19 08:50:23;;;;;;;;;;;10.00;88.80;;;;;;5013774;28;20499;-81
2022/10/19 08:52:50;;;;;;;;;;;10.00;88.60;;;;;;5008644;28;19917;-80
2022/10/19 08:55:20;;;;;;;;;;;10.10;88.10;;;;;;5013458;28;19913;-82
2022/10/19 08:57:53;;;;;;;;;;;10.20;88.40;;;;;;5018322;28;19964;-81
2022/10/19 09:00:18;;;;;;;;;;;10.30;88.10;;;;;;5018383;28;19999;-81
2022/10/19 09:03:00;;;;;;;;;;;10.50;88.00;;;;;;5022110;28;19968;-81
2022/10/19 09:05:26;;;;;;;;;;;10.40;87.10;;;;;;5020002;28;19924;-82
2022/10/19 09:07:52;;;;;;;;;;;10.50;87.40;;;;;;5019081;28;19914;-81
2022/10/19 09:10:21;;;;;;;;;;;10.50;86.90;;;;;;5019702;28;19969;-81
2022/10/19 09:12:49;;;;;;;;;;;10.60;87.10;;;;;;5019813;28;19913;-81
2022/10/19 09:15:19;;;;;;;;;;;10.70;86.50;;;;;;5017955;28;19913;-82
2022/10/19 09:17:45;;;;;;;;;;;10.80;86.80;;;;;;5016403;28;19918;-81
2022/10/19 09:20:40;;;;;;;;;;;10.90;86.50;;;;;;5017913;28;20289;-82
2022/10/19 09:23:19;;;;;;;;;;;11.00;85.70;;;;;;5010184;28;19921;-81
2022/10/19 09:25:46;;;;;;;;;;;11.10;84.70;;;;;;5033895;28;19913;-81
2022/10/19 09:28:17;;;;;;;;;;;11.20;84.40;;;;;;5016324;28;20427;-81
2022/10/19 09:30:43;;;;;;;;;;;11.30;83.20;;;;;;5017489;28;20293;-80
2022/10/19 09:33:13;;;;;;;;;;;11.50;82.90;;;;;;5015192;28;19921;-81
2022/10/19 09:35:41;;;;;;;;;;;11.50;83.00;;;;;;5014476;28;19913;-81
2022/10/19 09:38:08;;;;;;;;;;;11.50;82.30;;;;;;5025494;28;20404;-81
2022/10/19 09:40:34;;;;;;;;;;;11.60;83.00;;;;;;5015999;28;19917;-80
2022/10/19 09:43:08;;;;;;;;;;;11.60;83.10;;;;;;5015054;28;19968;-81
2022/10/19 09:45:59;;;;;;;;;;;11.60;81.80;;;;;;5008494;28;19921;-81
2022/10/19 09:48:31;;;;;;;;;;;11.70;81.30;;;;;;5014947;28;19917;-81
2022/10/19 09:50:58;;;;;;;;;;;11.80;81.40;;;;;;5011773;28;19953;-80
2022/10/19 09:53:25;;;;;;;;;;;11.90;81.50;;;;;;5015795;28;19913;-81
2022/10/19 09:56:05;;;;;;;;;;;12.00;81.00;;;;;;5014769;28;19927;-81
2022/10/19 09:58:31;;;;;;;;;;;12.00;80.90;;;;;;5014371;28;19917;-79
2022/10/19 10:00:57;;;;;;;;;;;12.00;79.60;;;;;;5015931;28;19914;-79
2022/10/19 10:03:29;;;;;;;;;;;12.10;79.80;;;;;;5040394;28;19913;-81
2022/10/19 10:05:56;;;;;;;;;;;12.10;79.30;;;;;;5025938;28;19945;-82
2022/10/19 10:08:24;;;;;;;;;;;12.10;78.70;;;;;;5020376;28;19913;-84
2022/10/19 10:11:03;;;;;;;;;;;12.20;78.90;;;;;;5036689;28;19924;-80
2022/10/19 10:13:28;;;;;;;;;;;12.20;78.90;;;;;;5009380;28;19925;-82
2022/10/19 10:16:02;;;;;;;;;;;12.30;78.80;;;;;;5041967;28;19976;-82
2022/10/19 10:18:28;;;;;;;;;;;12.30;79.90;;;;;;5022455;28;19925;-82
2022/10/19 10:20:57;;;;;;;;;;;12.30;80.20;;;;;;5025168;28;19913;-81
2022/10/19 10:23:23;;;;;;;;;;;12.30;78.60;;;;;;5024931;28;19913;-83
2022/10/19 10:25:49;;;;;;;;;;;12.40;79.20;;;;;;5018624;28;19914;-82
2022/10/19 10:28:19;;;;;;;;;;;12.40;78.70;;;;;;5038273;28;19920;-82
2022/10/19 10:30:45;;;;;;;;;;;12.40;78.90;;;;;;5022387;28;19918;-82
2022/10/19 10:33:24;;;;;;;;;;;12.60;77.80;;;;;;5019931;28;19952;-80
2022/10/19 10:35:52;;;;;;;;;;;12.60;76.70;;;;;;5017358;28;19939;-83
2022/10/19 10:38:23;;;;;;;;;;;12.60;76.90;;;;;;5013753;28;19922;-82
2022/10/19 10:40:50;;;;;;;;;;;12.70;78.20;;;;;;5016467;28;19957;-81
2022/10/19 10:43:17;;;;;;;;;;;12.80;77.20;;;;;;5016126;28;19914;-82
2022/10/19 10:45:45;;;;;;;;;;;12.80;77.10;;;;;;5017463;28;19963;-79
2022/10/19 10:48:20;;;;;;;;;;;12.80;78.10;;;;;;5028658;28;19951;-80
2022/10/19 10:50:46;;;;;;;;;;;12.80;76.40;;;;;;5019856;28;19913;-80
2022/10/19 10:53:30;;;;;;;;;;;12.90;76.20;;;;;;5018023;28;19920;-79
2022/10/19 10:55:56;;;;;;;;;;;12.90;76.50;;;;;;5018655;28;20372;-79
2022/10/19 10:58:42;;;;;;;;;;;12.90;76.50;;;;;;5023340;28;19913;-80
2022/10/19 11:01:14;;;;;;;;;;;13.00;76.50;;;;;;5022433;28;19910;-79
2022/10/19 11:03:41;;;;;;;;;;;12.90;77.20;;;;;;5029847;28;19921;-79
2022/10/19 11:06:07;;;;;;;;;;;12.90;77.10;;;;;;5008940;28;19917;-79
2022/10/19 11:08:51;;;;;;;;;;;13.00;76.90;;;;;;5024520;28;19980;-79
2022/10/19 11:11:21;;;;;;;;;;;13.00;77.00;;;;;;5023839;28;20293;-78
2022/10/19 11:13:56;;;;;;;;;;;13.10;77.60;;;;;;5022879;28;19913;-79
2022/10/19 11:16:41;;;;;;;;;;;13.20;77.30;;;;;;5027282;28;19919;-78
2022/10/19 11:19:11;;;;;;;;;;;13.30;75.70;;;;;;5026652;28;19926;-80
2022/10/19 11:21:41;;;;;;;;;;;13.30;75.60;;;;;;5025073;28;19910;-78
2022/10/19 11:24:19;;;;;;;;;;;13.30;75.90;;;;;;5041552;28;19985;-80
2022/10/19 11:27:04;;;;;;;;;;;13.30;76.80;;;;;;5026286;28;19913;-79
2022/10/19 11:29:35;;;;;;;;;;;13.40;75.50;;;;;;5027069;28;19910;-80
2022/10/19 11:32:00;;;;;;;;;;;13.40;75.50;;;;;;5024234;28;19920;-79
2022/10/19 11:34:52;;;;;;;;;;;13.40;74.60;;;;;;5022714;28;20416;-81
2022/10/19 11:37:32;;;;;;;;;;;13.40;75.90;;;;;;5027030;28;19913;-80
2022/10/19 11:40:14;;;;;;;;;;;13.40;72.70;;;;;;5027330;28;19910;-80
2022/10/19 11:42:53;;;;;;;;;;;13.40;71.40;;;;;;5026770;28;19941;-80
2022/10/19 11:45:25;;;;;;;;;;;13.50;72.90;;;;;;5022412;28;19917;-79
2022/10/19 11:47:53;;;;;;;;;;;13.50;73.70;;;;;;5028035;28;19937;-79
2022/10/19 11:50:34;;;;;;;;;;;13.60;71.70;;;;;;5027293;28;19906;-79
2022/10/19 11:53:20;;;;;;;;;;;13.60;73.60;;;;;;5024291;28;19914;-81
2022/10/19 11:56:11;;;;;;;;;;;13.60;73.70;;;;;;5027337;28;19968;-78
2022/10/19 11:59:04;;;;;;;;;;;13.60;71.60;;;;;;5024982;28;19925;-80
2022/10/19 12:01:29;;;;;;;;;;;13.60;71.40;;;;;;5024733;28;19964;-79
2022/10/19 12:04:00;;;;;;;;;;;13.70;72.90;;;;;;5025749;28;19913;-79
2022/10/19 12:06:29;;;;;;;;;;;13.80;71.40;;;;;;5024632;28;19914;-79
2022/10/19 12:09:21;;;;;;;;;;;13.80;71.40;;;;;;5022030;28;19917;-78
2022/10/19 12:12:05;;;;;;;;;;;13.80;70.40;;;;;;4995769;28;20221;-79
2022/10/19 12:14:33;;;;;;;;;;;13.80;71.60;;;;;;5032877;28;19909;-80
2022/10/19 12:17:03;;;;;;;;;;;13.80;71.90;;;;;;5034035;28;19940;-80
2022/10/19 12:19:33;;;;;;;;;;;13.80;72.00;;;;;;5031815;28;19917;-80
2022/10/19 12:22:01;;;;;;;;;;;13.80;72.20;;;;;;5033196;28;19940;-79
2022/10/19 12:24:27;;;;;;;;;;;13.70;72.90;;;;;;5030573;28;19924;-79
2022/10/19 12:26:53;;;;;;;;;;;13.80;72.50;;;;;;5031795;28;19972;-79
2022/10/19 12:29:27;;;;;;;;;;;13.90;71.50;;;;;;5033722;28;19910;-78
2022/10/19 12:31:54;;;;;;;;;;;13.80;72.50;;;;;;5032445;28;20213;-79
2022/10/19 12:34:27;;;;;;;;;;;13.90;72.60;;;;;;5034517;28;19948;-80
2022/10/19 12:37:06;;;;;;;;;;;13.80;71.70;;;;;;5033099;28;19981;-79
2022/10/19 12:39:37;;;;;;;;;;;13.90;72.30;;;;;;5030565;28;20266;-82
2022/10/19 12:42:12;;;;;;;;;;;13.90;73.10;;;;;;5033017;28;19951;-82
2022/10/19 12:45:13;;;;;;;;;;;14.00;72.20;;;;;;5042987;23;19925;-89
2022/10/19 12:47:39;;;;;;;;;;;14.10;71.70;;;;;;5035566;28;20333;-87
2022/10/19 12:50:05;;;;;;;;;;;14.10;70.60;;;;;;5034581;28;20003;-87
2022/10/19 12:52:33;;;;;;;;;;;14.10;71.20;;;;;;5019357;28;19917;-82
2022/10/19 12:55:14;;;;;;;;;;;14.10;71.10;;;;;;5017356;28;20007;-86
2022/10/19 12:57:42;;;;;;;;;;;14.10;72.00;;;;;;4974294;28;19965;-85
2022/10/19 13:00:18;;;;;;;;;;;14.10;71.80;;;;;;4972026;28;19913;-86
2022/10/19 13:02:45;;;;;;;;;;;14.20;72.40;;;;;;4984886;28;20557;-85
2022/10/19 13:05:21;;;;;;;;;;;14.30;71.10;;;;;;4954792;28;19921;-86
2022/10/19 13:07:48;;;;;;;;;;;14.20;70.80;;;;;;4959858;28;20181;-83
2022/10/19 13:10:24;;;;;;;;;;;14.20;70.60;;;;;;4983212;28;20246;-83
2022/10/19 13:12:51;;;;;;;;;;;14.20;71.30;;;;;;4984992;28;20226;-85
2022/10/19 13:15:34;;;;;;;;;;;14.20;71.80;;;;;;4994208;23;19932;-83
2022/10/19 13:18:04;;;;;;;;;;;14.20;71.50;;;;;;4991617;28;20029;-82
2022/10/19 13:20:30;;;;;;;;;;;14.30;71.10;;;;;;4998089;28;19926;-85
2022/10/19 13:22:59;;;;;;;;;;;14.30;71.30;;;;;;4995535;28;20301;-84
2022/10/19 13:25:31;;;;;;;;;;;14.30;71.80;;;;;;4996852;28;19909;-83
2022/10/19 13:28:23;;;;;;;;;;;14.30;71.50;;;;;;4998185;28;19961;-82
2022/10/19 13:30:48;;;;;;;;;;;14.30;71.00;;;;;;4996649;28;19917;-85
2022/10/19 13:33:33;;;;;;;;;;;14.30;71.60;;;;;;4995680;28;20300;-83
2022/10/19 13:35:59;;;;;;;;;;;14.30;71.70;;;;;;5000796;28;20551;-83
2022/10/19 13:38:27;;;;;;;;;;;14.30;71.30;;;;;;4996123;28;19918;-84
2022/10/19 13:41:05;;;;;;;;;;;14.30;71.50;;;;;;4996229;28;19942;-82
2022/10/19 13:43:31;;;;;;;;;;;14.20;72.00;;;;;;4996013;28;20388;-82
2022/10/19 13:45:56;;;;;;;;;;;14.20;71.60;;;;;;5006399;28;20004;-81
2022/10/19 13:48:28;;;;;;;;;;;14.20;71.50;;;;;;5002373;28;20008;-81
2022/10/19 13:50:58;;;;;;;;;;;14.20;72.10;;;;;;5000224;28;19917;-82
2022/10/19 13:53:31;;;;;;;;;;;14.20;71.70;;;;;;5005929;28;19921;-81
2022/10/19 13:55:56;;;;;;;;;;;14.20;71.60;;;;;;5001733;28;19976;-84
2022/10/19 13:58:22;;;;;;;;;;;14.20;73.10;;;;;;5000734;28;19917;-85
2022/10/19 14:01:07;;;;;;;;;;;14.10;72.30;;;;;;5001732;28;19917;-83
2022/10/19 14:03:38;;;;;;;;;;;14.10;72.20;;;;;;5000854;28;19926;-83
2022/10/19 14:06:03;;;;;;;;;;;14.10;72.50;;;;;;4992491;28;19913;-80
2022/10/19 14:08:48;;;;;;;;;;;14.10;72.00;;;;;;4995064;28;19922;-80
2022/10/19 14:11:32;;;;;;;;;;;14.10;71.90;;;;;;5003242;28;19967;-81
2022/10/19 14:14:10;;;;;;;;;;;14.10;72.10;;;;;;5002801;28;19913;-82
2022/10/19 14:16:52;;;;;;;;;;;14.10;73.30;;;;;;4995781;28;19937;-82
2022/10/19 14:19:27;;;;;;;;;;;14.10;72.90;;;;;;5011500;28;19917;-82
2022/10/19 14:21:54;;;;;;;;;;;14.00;72.30;;;;;;5002800;28;19949;-81
2022/10/19 14:24:39;;;;;;;;;;;14.10;72.40;;;;;;5001320;28;19925;-83
2022/10/19 14:27:06;;;;;;;;;;;14.10;72.70;;;;;;5001430;28;20266;-83
2022/10/19 14:29:42;;;;;;;;;;;14.00;72.70;;;;;;5003259;28;19925;-84
2022/10/19 14:32:09;;;;;;;;;;;14.00;73.10;;;;;;5004043;28;19992;-84
2022/10/19 14:34:38;;;;;;;;;;;14.00;73.70;;;;;;5002089;28;19921;-82
2022/10/19 14:37:04;;;;;;;;;;;14.00;73.40;;;;;;5001858;28;19980;-83
2022/10/19 14:39:31;;;;;;;;;;;14.00;72.50;;;;;;5001966;28;20394;-85
2022/10/19 14:42:02;;;;;;;;;;;13.90;73.10;;;;;;5000517;28;19929;-84
2022/10/19 14:44:34;;;;;;;;;;;14.00;72.40;;;;;;5010506;28;19925;-84
2022/10/19 14:47:00;;;;;;;;;;;14.00;72.40;;;;;;5001875;28;19924;-83
2022/10/19 14:49:26;;;;;;;;;;;13.90;72.90;;;;;;5003193;28;19945;-82